sensor_id;sensor_type;location;lat;lon;timestamp;P1;durP1;ratioP1;P2;durP2;ratioP2
24567;SDS011;12731;52.182;8.716;2023-11-18T00:00:25;73.53;;;33.88;;
24567;SDS011;12731;52.182;8.716;2023-11-18T00:02:52;71.68;;;32.47;;
24567;SDS011;12731;52.182;8.716;2023-11-18T00:05:18;68.53;;;32.83;;
24567;SDS011;12731;52.182;8.716;2023-11-18T00:07:45;68.65;;;32.83;;
24567;SDS011;12731;52.182;8.716;2023-11-18T00:10:11;65.63;;;30.73;;
24567;SDS011;12731;52.182;8.716;2023-11-18T00:12:38;60.13;;;31.42;;
24567;SDS011;12731;52.182;8.716;2023-11-18T00:15:08;62.13;;;31.42;;
24567;SDS011;12731;52.182;8.716;2023-11-18T00:17:37;63.35;;;32.00;;
24567;SDS011;12731;52.182;8.716;2023-11-18T00:20:04;58.90;;;30.20;;
24567;SDS011;12731;52.182;8.716;2023-11-18T00:22:36;61.90;;;32.13;;
24567;SDS011;12731;52.182;8.716;2023-11-18T00:25:02;57.88;;;29.35;;
24567;SDS011;12731;52.182;8.716;2023-11-18T00:27:34;56.73;;;30.33;;
24567;SDS011;12731;52.182;8.716;2023-11-18T00:30:04;52.08;;;27.85;;
24567;SDS011;12731;52.182;8.716;2023-11-18T00:32:39;51.28;;;27.20;;
24567;SDS011;12731;52.182;8.716;2023-11-18T00:35:06;53.17;;;28.20;;
24567;SDS011;12731;52.182;8.716;2023-11-18T00:37:34;45.42;;;25.95;;
24567;SDS011;12731;52.182;8.716;2023-11-18T00:40:01;50.80;;;26.55;;
24567;SDS011;12731;52.182;8.716;2023-11-18T00:42:27;48.08;;;25.88;;
24567;SDS011;12731;52.182;8.716;2023-11-18T00:44:54;47.65;;;26.08;;
24567;SDS011;12731;52.182;8.716;2023-11-18T00:47:21;46.75;;;24.63;;
24567;SDS011;12731;52.182;8.716;2023-11-18T00:49:49;49.22;;;26.63;;
24567;SDS011;12731;52.182;8.716;2023-11-18T00:52:18;45.75;;;26.42;;
24567;SDS011;12731;52.182;8.716;2023-11-18T00:54:45;48.88;;;26.77;;
24567;SDS011;12731;52.182;8.716;2023-11-18T00:57:11;54.95;;;26.90;;
24567;SDS011;12731;52.182;8.716;2023-11-18T00:59:41;48.30;;;26.98;;
24567;SDS011;12731;52.182;8.716;2023-11-18T01:02:08;56.05;;;28.02;;
24567;SDS011;12731;52.182;8.716;2023-11-18T01:04:35;55.95;;;27.33;;
24567;SDS011;12731;52.182;8.716;2023-11-18T01:07:01;49.00;;;24.67;;
24567;SDS011;12731;52.182;8.716;2023-11-18T01:09:28;45.00;;;24.20;;
24567;SDS011;12731;52.182;8.716;2023-11-18T01:11:55;38.85;;;23.33;;
24567;SDS011;12731;52.182;8.716;2023-11-18T01:14:34;52.90;;;24.92;;
24567;SDS011;12731;52.182;8.716;2023-11-18T01:17:00;42.17;;;23.45;;
24567;SDS011;12731;52.182;8.716;2023-11-18T01:19:27;47.78;;;24.20;;
24567;SDS011;12731;52.182;8.716;2023-11-18T01:21:54;51.20;;;24.65;;
24567;SDS011;12731;52.182;8.716;2023-11-18T01:24:21;45.88;;;25.58;;
24567;SDS011;12731;52.182;8.716;2023-11-18T01:26:48;67.65;;;27.00;;
24567;SDS011;12731;52.182;8.716;2023-11-18T01:29:14;61.10;;;27.55;;
24567;SDS011;12731;52.182;8.716;2023-11-18T01:31:41;54.58;;;27.38;;
24567;SDS011;12731;52.182;8.716;2023-11-18T01:34:18;59.40;;;28.92;;
24567;SDS011;12731;52.182;8.716;2023-11-18T01:36:48;64.88;;;30.63;;
24567;SDS011;12731;52.182;8.716;2023-11-18T01:39:16;63.22;;;30.05;;
24567;SDS011;12731;52.182;8.716;2023-11-18T01:41:44;65.90;;;30.90;;
24567;SDS011;12731;52.182;8.716;2023-11-18T01:44:11;64.72;;;30.80;;
24567;SDS011;12731;52.182;8.716;2023-11-18T01:46:41;66.03;;;29.40;;
24567;SDS011;12731;52.182;8.716;2023-11-18T01:49:12;73.72;;;33.70;;
24567;SDS011;12731;52.182;8.716;2023-11-18T01:51:41;74.32;;;33.78;;
24567;SDS011;12731;52.182;8.716;2023-11-18T01:54:09;78.85;;;34.65;;
24567;SDS011;12731;52.182;8.716;2023-11-18T01:56:38;76.10;;;33.60;;
24567;SDS011;12731;52.182;8.716;2023-11-18T01:59:04;85.78;;;35.78;;
24567;SDS011;12731;52.182;8.716;2023-11-18T02:01:32;92.63;;;36.60;;
24567;SDS011;12731;52.182;8.716;2023-11-18T02:04:02;87.25;;;35.95;;
24567;SDS011;12731;52.182;8.716;2023-11-18T02:06:32;80.70;;;34.53;;
24567;SDS011;12731;52.182;8.716;2023-11-18T02:08:58;80.25;;;35.45;;
24567;SDS011;12731;52.182;8.716;2023-11-18T02:11:34;88.85;;;36.25;;
24567;SDS011;12731;52.182;8.716;2023-11-18T02:14:07;91.65;;;39.25;;
24567;SDS011;12731;52.182;8.716;2023-11-18T02:16:38;99.50;;;38.90;;
24567;SDS011;12731;52.182;8.716;2023-11-18T02:19:07;95.47;;;39.55;;
24567;SDS011;12731;52.182;8.716;2023-11-18T02:21:36;92.30;;;38.30;;
24567;SDS011;12731;52.182;8.716;2023-11-18T02:24:04;99.90;;;39.10;;
24567;SDS011;12731;52.182;8.716;2023-11-18T02:26:30;97.13;;;39.67;;
24567;SDS011;12731;52.182;8.716;2023-11-18T02:28:57;100.35;;;39.97;;
24567;SDS011;12731;52.182;8.716;2023-11-18T02:31:27;102.43;;;39.42;;
24567;SDS011;12731;52.182;8.716;2023-11-18T02:34:12;104.00;;;41.53;;
24567;SDS011;12731;52.182;8.716;2023-11-18T02:36:43;100.65;;;38.80;;
24567;SDS011;12731;52.182;8.716;2023-11-18T02:39:14;96.38;;;37.15;;
24567;SDS011;12731;52.182;8.716;2023-11-18T02:41:51;95.72;;;38.78;;
24567;SDS011;12731;52.182;8.716;2023-11-18T02:44:18;103.10;;;40.40;;
24567;SDS011;12731;52.182;8.716;2023-11-18T02:46:46;109.95;;;40.83;;
24567;SDS011;12731;52.182;8.716;2023-11-18T02:49:15;105.57;;;41.30;;
24567;SDS011;12731;52.182;8.716;2023-11-18T02:51:41;102.85;;;41.05;;
24567;SDS011;12731;52.182;8.716;2023-11-18T02:54:09;102.28;;;39.17;;
24567;SDS011;12731;52.182;8.716;2023-11-18T02:56:37;106.65;;;39.97;;
24567;SDS011;12731;52.182;8.716;2023-11-18T02:59:04;108.85;;;41.33;;
24567;SDS011;12731;52.182;8.716;2023-11-18T03:01:33;107.03;;;39.88;;
24567;SDS011;12731;52.182;8.716;2023-11-18T03:04:00;105.10;;;38.90;;
24567;SDS011;12731;52.182;8.716;2023-11-18T03:06:27;103.10;;;38.78;;
24567;SDS011;12731;52.182;8.716;2023-11-18T03:08:54;109.97;;;40.90;;
24567;SDS011;12731;52.182;8.716;2023-11-18T03:11:20;113.25;;;43.13;;
24567;SDS011;12731;52.182;8.716;2023-11-18T03:13:47;114.43;;;42.95;;
24567;SDS011;12731;52.182;8.716;2023-11-18T03:16:13;105.95;;;40.95;;
24567;SDS011;12731;52.182;8.716;2023-11-18T03:18:40;112.28;;;41.13;;
24567;SDS011;12731;52.182;8.716;2023-11-18T03:21:14;109.85;;;42.33;;
24567;SDS011;12731;52.182;8.716;2023-11-18T03:23:41;112.47;;;44.40;;
24567;SDS011;12731;52.182;8.716;2023-11-18T03:26:08;119.68;;;44.85;;
24567;SDS011;12731;52.182;8.716;2023-11-18T03:28:36;111.93;;;42.65;;
24567;SDS011;12731;52.182;8.716;2023-11-18T03:31:07;119.53;;;43.13;;
24567;SDS011;12731;52.182;8.716;2023-11-18T03:33:34;110.40;;;42.08;;
24567;SDS011;12731;52.182;8.716;2023-11-18T03:36:00;115.50;;;42.67;;
24567;SDS011;12731;52.182;8.716;2023-11-18T03:38:27;117.82;;;44.75;;
24567;SDS011;12731;52.182;8.716;2023-11-18T03:40:56;120.35;;;43.35;;
24567;SDS011;12731;52.182;8.716;2023-11-18T03:43:25;121.53;;;43.88;;
24567;SDS011;12731;52.182;8.716;2023-11-18T03:45:51;126.78;;;44.28;;
24567;SDS011;12731;52.182;8.716;2023-11-18T03:48:23;121.13;;;44.05;;
24567;SDS011;12731;52.182;8.716;2023-11-18T03:50:50;117.13;;;40.25;;
24567;SDS011;12731;52.182;8.716;2023-11-18T03:53:17;115.15;;;43.17;;
24567;SDS011;12731;52.182;8.716;2023-11-18T03:55:43;117.70;;;42.40;;
24567;SDS011;12731;52.182;8.716;2023-11-18T03:58:10;115.28;;;40.22;;
24567;SDS011;12731;52.182;8.716;2023-11-18T04:00:37;105.15;;;38.58;;
24567;SDS011;12731;52.182;8.716;2023-11-18T04:03:03;103.97;;;37.80;;
24567;SDS011;12731;52.182;8.716;2023-11-18T04:05:34;97.30;;;38.78;;
24567;SDS011;12731;52.182;8.716;2023-11-18T04:08:01;99.63;;;38.35;;
24567;SDS011;12731;52.182;8.716;2023-11-18T04:10:27;104.68;;;39.58;;
24567;SDS011;12731;52.182;8.716;2023-11-18T04:12:54;92.45;;;37.03;;
24567;SDS011;12731;52.182;8.716;2023-11-18T04:15:20;85.57;;;35.03;;
24567;SDS011;12731;52.182;8.716;2023-11-18T04:17:47;90.97;;;36.42;;
24567;SDS011;12731;52.182;8.716;2023-11-18T04:20:14;89.70;;;36.45;;
24567;SDS011;12731;52.182;8.716;2023-11-18T04:22:42;87.93;;;36.85;;
24567;SDS011;12731;52.182;8.716;2023-11-18T04:25:09;84.13;;;33.72;;
24567;SDS011;12731;52.182;8.716;2023-11-18T04:27:37;76.70;;;33.10;;
24567;SDS011;12731;52.182;8.716;2023-11-18T04:30:04;81.75;;;33.78;;
24567;SDS011;12731;52.182;8.716;2023-11-18T04:32:31;79.70;;;33.80;;
24567;SDS011;12731;52.182;8.716;2023-11-18T04:34:59;79.97;;;34.28;;
24567;SDS011;12731;52.182;8.716;2023-11-18T04:37:26;77.47;;;34.05;;
24567;SDS011;12731;52.182;8.716;2023-11-18T04:39:52;72.20;;;31.88;;
24567;SDS011;12731;52.182;8.716;2023-11-18T04:42:21;80.53;;;33.22;;
24567;SDS011;12731;52.182;8.716;2023-11-18T04:44:48;71.90;;;32.53;;
24567;SDS011;12731;52.182;8.716;2023-11-18T04:47:14;84.85;;;36.17;;
24567;SDS011;12731;52.182;8.716;2023-11-18T04:49:41;80.53;;;33.92;;
24567;SDS011;12731;52.182;8.716;2023-11-18T04:52:08;77.65;;;34.95;;
24567;SDS011;12731;52.182;8.716;2023-11-18T04:54:35;75.13;;;33.05;;
24567;SDS011;12731;52.182;8.716;2023-11-18T04:57:02;85.32;;;36.75;;
24567;SDS011;12731;52.182;8.716;2023-11-18T04:59:28;79.82;;;35.13;;
24567;SDS011;12731;52.182;8.716;2023-11-18T05:01:57;68.10;;;33.90;;
24567;SDS011;12731;52.182;8.716;2023-11-18T05:04:23;76.63;;;30.75;;
24567;SDS011;12731;52.182;8.716;2023-11-18T05:06:50;71.75;;;33.25;;
24567;SDS011;12731;52.182;8.716;2023-11-18T05:09:17;73.55;;;31.92;;
24567;SDS011;12731;52.182;8.716;2023-11-18T05:11:44;74.57;;;34.05;;
24567;SDS011;12731;52.182;8.716;2023-11-18T05:14:11;70.93;;;34.05;;
24567;SDS011;12731;52.182;8.716;2023-11-18T05:16:38;75.60;;;34.17;;
24567;SDS011;12731;52.182;8.716;2023-11-18T05:19:05;76.72;;;34.78;;
24567;SDS011;12731;52.182;8.716;2023-11-18T05:21:33;73.65;;;33.55;;
24567;SDS011;12731;52.182;8.716;2023-11-18T05:24:00;71.68;;;33.08;;
24567;SDS011;12731;52.182;8.716;2023-11-18T05:26:26;71.18;;;33.33;;
24567;SDS011;12731;52.182;8.716;2023-11-18T05:28:53;68.15;;;30.92;;
24567;SDS011;12731;52.182;8.716;2023-11-18T05:31:21;75.20;;;32.30;;
24567;SDS011;12731;52.182;8.716;2023-11-18T05:33:47;65.35;;;29.95;;
24567;SDS011;12731;52.182;8.716;2023-11-18T05:36:18;63.67;;;30.10;;
24567;SDS011;12731;52.182;8.716;2023-11-18T05:38:53;62.38;;;29.38;;
24567;SDS011;12731;52.182;8.716;2023-11-18T05:41:20;56.03;;;27.58;;
24567;SDS011;12731;52.182;8.716;2023-11-18T05:43:54;57.92;;;28.95;;
24567;SDS011;12731;52.182;8.716;2023-11-18T05:46:24;56.15;;;28.35;;
24567;SDS011;12731;52.182;8.716;2023-11-18T05:48:52;60.42;;;28.02;;
24567;SDS011;12731;52.182;8.716;2023-11-18T05:51:23;57.75;;;27.80;;
24567;SDS011;12731;52.182;8.716;2023-11-18T05:53:51;59.00;;;28.83;;
24567;SDS011;12731;52.182;8.716;2023-11-18T05:56:18;62.72;;;28.50;;
24567;SDS011;12731;52.182;8.716;2023-11-18T05:58:45;60.35;;;29.38;;
24567;SDS011;12731;52.182;8.716;2023-11-18T06:01:13;65.30;;;30.13;;
24567;SDS011;12731;52.182;8.716;2023-11-18T06:03:41;61.13;;;27.13;;
24567;SDS011;12731;52.182;8.716;2023-11-18T06:06:09;69.10;;;29.65;;
24567;SDS011;12731;52.182;8.716;2023-11-18T06:08:37;59.28;;;27.45;;
24567;SDS011;12731;52.182;8.716;2023-11-18T06:11:08;54.83;;;26.50;;
24567;SDS011;12731;52.182;8.716;2023-11-18T06:13:43;57.60;;;26.77;;
24567;SDS011;12731;52.182;8.716;2023-11-18T06:16:13;58.00;;;28.23;;
24567;SDS011;12731;52.182;8.716;2023-11-18T06:18:51;65.20;;;28.10;;
24567;SDS011;12731;52.182;8.716;2023-11-18T06:21:23;61.70;;;28.38;;
24567;SDS011;12731;52.182;8.716;2023-11-18T06:23:51;56.67;;;27.77;;
24567;SDS011;12731;52.182;8.716;2023-11-18T06:26:18;56.03;;;26.70;;
24567;SDS011;12731;52.182;8.716;2023-11-18T06:28:45;47.75;;;23.70;;
24567;SDS011;12731;52.182;8.716;2023-11-18T06:31:13;45.65;;;22.70;;
24567;SDS011;12731;52.182;8.716;2023-11-18T06:38:37;38.65;;;22.42;;
24567;SDS011;12731;52.182;8.716;2023-11-18T06:41:06;38.45;;;23.38;;
24567;SDS011;12731;52.182;8.716;2023-11-18T06:43:40;40.72;;;24.58;;
24567;SDS011;12731;52.182;8.716;2023-11-18T06:46:29;37.15;;;22.67;;
24567;SDS011;12731;52.182;8.716;2023-11-18T06:49:01;36.80;;;22.73;;
24567;SDS011;12731;52.182;8.716;2023-11-18T06:51:34;36.95;;;21.48;;
24567;SDS011;12731;52.182;8.716;2023-11-18T06:54:03;32.53;;;20.83;;
24567;SDS011;12731;52.182;8.716;2023-11-18T06:56:34;35.67;;;22.27;;
24567;SDS011;12731;52.182;8.716;2023-11-18T06:59:05;37.60;;;23.40;;
24567;SDS011;12731;52.182;8.716;2023-11-18T07:01:36;37.70;;;23.45;;
24567;SDS011;12731;52.182;8.716;2023-11-18T07:04:03;38.38;;;23.88;;
24567;SDS011;12731;52.182;8.716;2023-11-18T07:06:30;46.67;;;25.98;;
24567;SDS011;12731;52.182;8.716;2023-11-18T07:08:57;44.85;;;26.85;;
24567;SDS011;12731;52.182;8.716;2023-11-18T07:11:26;39.80;;;24.48;;
24567;SDS011;12731;52.182;8.716;2023-11-18T07:13:53;41.33;;;24.65;;
24567;SDS011;12731;52.182;8.716;2023-11-18T07:16:23;37.05;;;23.52;;
24567;SDS011;12731;52.182;8.716;2023-11-18T07:18:50;44.22;;;25.55;;
24567;SDS011;12731;52.182;8.716;2023-11-18T07:21:18;37.90;;;23.40;;
24567;SDS011;12731;52.182;8.716;2023-11-18T07:23:44;39.92;;;23.60;;
24567;SDS011;12731;52.182;8.716;2023-11-18T07:26:11;35.38;;;22.85;;
24567;SDS011;12731;52.182;8.716;2023-11-18T07:28:38;35.08;;;21.65;;
24567;SDS011;12731;52.182;8.716;2023-11-18T07:31:04;37.30;;;21.67;;
24567;SDS011;12731;52.182;8.716;2023-11-18T07:33:31;39.10;;;23.90;;
24567;SDS011;12731;52.182;8.716;2023-11-18T07:35:58;51.30;;;26.38;;
24567;SDS011;12731;52.182;8.716;2023-11-18T07:38:25;53.35;;;26.90;;
24567;SDS011;12731;52.182;8.716;2023-11-18T07:40:53;50.00;;;26.42;;
24567;SDS011;12731;52.182;8.716;2023-11-18T07:43:23;52.75;;;26.23;;
24567;SDS011;12731;52.182;8.716;2023-11-18T07:45:49;51.95;;;25.33;;
24567;SDS011;12731;52.182;8.716;2023-11-18T07:48:18;46.78;;;24.65;;
24567;SDS011;12731;52.182;8.716;2023-11-18T07:50:47;48.10;;;24.52;;
24567;SDS011;12731;52.182;8.716;2023-11-18T07:53:14;51.17;;;25.73;;
24567;SDS011;12731;52.182;8.716;2023-11-18T07:55:41;47.72;;;27.13;;
24567;SDS011;12731;52.182;8.716;2023-11-18T07:58:11;50.90;;;27.48;;
24567;SDS011;12731;52.182;8.716;2023-11-18T08:00:38;47.83;;;25.83;;
24567;SDS011;12731;52.182;8.716;2023-11-18T08:03:11;45.80;;;26.98;;
24567;SDS011;12731;52.182;8.716;2023-11-18T08:05:38;49.30;;;27.77;;
24567;SDS011;12731;52.182;8.716;2023-11-18T08:08:10;46.88;;;26.17;;
24567;SDS011;12731;52.182;8.716;2023-11-18T08:10:40;45.40;;;25.77;;
24567;SDS011;12731;52.182;8.716;2023-11-18T08:13:07;45.53;;;26.20;;
24567;SDS011;12731;52.182;8.716;2023-11-18T08:15:34;52.20;;;27.75;;
24567;SDS011;12731;52.182;8.716;2023-11-18T08:18:03;47.45;;;25.30;;
24567;SDS011;12731;52.182;8.716;2023-11-18T08:20:30;43.33;;;25.02;;
24567;SDS011;12731;52.182;8.716;2023-11-18T08:22:57;44.42;;;24.10;;
24567;SDS011;12731;52.182;8.716;2023-11-18T08:25:23;47.00;;;25.42;;
24567;SDS011;12731;52.182;8.716;2023-11-18T08:27:50;47.97;;;24.67;;
24567;SDS011;12731;52.182;8.716;2023-11-18T08:30:16;43.85;;;25.60;;
24567;SDS011;12731;52.182;8.716;2023-11-18T08:32:45;54.80;;;28.67;;
24567;SDS011;12731;52.182;8.716;2023-11-18T08:35:12;46.30;;;24.52;;
24567;SDS011;12731;52.182;8.716;2023-11-18T08:37:42;46.13;;;23.30;;
24567;SDS011;12731;52.182;8.716;2023-11-18T08:40:09;44.70;;;22.98;;
24567;SDS011;12731;52.182;8.716;2023-11-18T08:42:43;43.33;;;23.08;;
24567;SDS011;12731;52.182;8.716;2023-11-18T08:47:43;42.55;;;21.25;;
24567;SDS011;12731;52.182;8.716;2023-11-18T08:50:10;39.00;;;20.98;;
24567;SDS011;12731;52.182;8.716;2023-11-18T08:52:39;38.13;;;20.50;;
24567;SDS011;12731;52.182;8.716;2023-11-18T08:55:10;38.17;;;20.48;;
24567;SDS011;12731;52.182;8.716;2023-11-18T08:58:00;36.70;;;19.23;;
24567;SDS011;12731;52.182;8.716;2023-11-18T09:00:30;33.85;;;18.60;;
24567;SDS011;12731;52.182;8.716;2023-11-18T09:03:13;33.63;;;18.90;;
24567;SDS011;12731;52.182;8.716;2023-11-18T09:06:01;30.25;;;17.25;;
24567;SDS011;12731;52.182;8.716;2023-11-18T09:08:34;31.63;;;16.75;;
24567;SDS011;12731;52.182;8.716;2023-11-18T09:11:02;28.35;;;16.27;;
24567;SDS011;12731;52.182;8.716;2023-11-18T09:13:31;29.27;;;16.23;;
24567;SDS011;12731;52.182;8.716;2023-11-18T09:15:58;27.55;;;15.93;;
24567;SDS011;12731;52.182;8.716;2023-11-18T09:18:29;26.48;;;15.43;;
24567;SDS011;12731;52.182;8.716;2023-11-18T09:21:00;23.52;;;14.57;;
24567;SDS011;12731;52.182;8.716;2023-11-18T09:23:28;27.75;;;15.68;;
24567;SDS011;12731;52.182;8.716;2023-11-18T09:25:55;22.80;;;14.57;;
24567;SDS011;12731;52.182;8.716;2023-11-18T09:28:26;22.98;;;14.00;;
24567;SDS011;12731;52.182;8.716;2023-11-18T09:30:58;23.17;;;14.30;;
24567;SDS011;12731;52.182;8.716;2023-11-18T09:33:26;21.73;;;13.27;;
24567;SDS011;12731;52.182;8.716;2023-11-18T09:36:02;21.52;;;13.07;;
24567;SDS011;12731;52.182;8.716;2023-11-18T09:38:34;21.58;;;12.80;;
24567;SDS011;12731;52.182;8.716;2023-11-18T09:41:07;19.13;;;12.35;;
24567;SDS011;12731;52.182;8.716;2023-11-18T09:43:37;17.70;;;11.88;;
24567;SDS011;12731;52.182;8.716;2023-11-18T09:46:17;16.77;;;11.25;;
24567;SDS011;12731;52.182;8.716;2023-11-18T09:48:51;17.40;;;10.77;;
24567;SDS011;12731;52.182;8.716;2023-11-18T09:51:23;17.90;;;11.18;;
24567;SDS011;12731;52.182;8.716;2023-11-18T09:53:52;18.65;;;11.73;;
24567;SDS011;12731;52.182;8.716;2023-11-18T09:59:05;16.90;;;10.98;;
24567;SDS011;12731;52.182;8.716;2023-11-18T10:01:42;14.60;;;10.10;;
24567;SDS011;12731;52.182;8.716;2023-11-18T10:04:13;15.95;;;10.50;;
24567;SDS011;12731;52.182;8.716;2023-11-18T10:06:44;13.77;;;9.95;;
24567;SDS011;12731;52.182;8.716;2023-11-18T10:09:11;14.50;;;10.02;;
24567;SDS011;12731;52.182;8.716;2023-11-18T10:11:48;14.63;;;10.13;;
24567;SDS011;12731;52.182;8.716;2023-11-18T10:14:15;14.63;;;9.70;;
24567;SDS011;12731;52.182;8.716;2023-11-18T10:16:44;14.38;;;9.10;;
24567;SDS011;12731;52.182;8.716;2023-11-18T10:19:14;12.75;;;9.80;;
24567;SDS011;12731;52.182;8.716;2023-11-18T10:21:44;16.95;;;10.13;;
24567;SDS011;12731;52.182;8.716;2023-11-18T10:24:15;11.25;;;7.32;;
24567;SDS011;12731;52.182;8.716;2023-11-18T10:26:53;15.43;;;10.35;;
24567;SDS011;12731;52.182;8.716;2023-11-18T10:29:25;13.90;;;9.75;;
24567;SDS011;12731;52.182;8.716;2023-11-18T10:34:34;19.10;;;10.88;;
24567;SDS011;12731;52.182;8.716;2023-11-18T10:37:01;17.65;;;10.38;;
24567;SDS011;12731;52.182;8.716;2023-11-18T10:39:29;15.20;;;10.55;;
24567;SDS011;12731;52.182;8.716;2023-11-18T10:42:01;13.43;;;10.35;;
24567;SDS011;12731;52.182;8.716;2023-11-18T10:44:28;14.05;;;9.55;;
24567;SDS011;12731;52.182;8.716;2023-11-18T10:46:55;15.88;;;10.18;;
24567;SDS011;12731;52.182;8.716;2023-11-18T10:49:26;13.57;;;9.73;;
24567;SDS011;12731;52.182;8.716;2023-11-18T10:51:55;13.63;;;10.15;;
24567;SDS011;12731;52.182;8.716;2023-11-18T10:54:22;13.48;;;10.20;;
24567;SDS011;12731;52.182;8.716;2023-11-18T10:56:52;14.93;;;10.18;;
24567;SDS011;12731;52.182;8.716;2023-11-18T10:59:22;15.77;;;10.63;;
24567;SDS011;12731;52.182;8.716;2023-11-18T11:01:49;13.73;;;10.30;;
24567;SDS011;12731;52.182;8.716;2023-11-18T11:04:16;14.88;;;10.70;;
24567;SDS011;12731;52.182;8.716;2023-11-18T11:06:47;15.57;;;11.13;;
24567;SDS011;12731;52.182;8.716;2023-11-18T11:09:20;16.05;;;11.10;;
24567;SDS011;12731;52.182;8.716;2023-11-18T11:11:54;14.80;;;11.30;;
24567;SDS011;12731;52.182;8.716;2023-11-18T11:14:22;16.33;;;11.20;;
24567;SDS011;12731;52.182;8.716;2023-11-18T11:16:51;15.80;;;10.93;;
24567;SDS011;12731;52.182;8.716;2023-11-18T11:19:24;13.10;;;10.30;;
24567;SDS011;12731;52.182;8.716;2023-11-18T11:22:10;16.10;;;10.80;;
24567;SDS011;12731;52.182;8.716;2023-11-18T11:27:42;13.27;;;9.90;;
24567;SDS011;12731;52.182;8.716;2023-11-18T11:30:22;16.88;;;11.02;;
24567;SDS011;12731;52.182;8.716;2023-11-18T11:32:52;12.88;;;9.93;;
24567;SDS011;12731;52.182;8.716;2023-11-18T11:35:22;14.98;;;10.90;;
24567;SDS011;12731;52.182;8.716;2023-11-18T11:37:51;12.50;;;9.95;;
24567;SDS011;12731;52.182;8.716;2023-11-18T11:40:20;13.57;;;10.20;;
24567;SDS011;12731;52.182;8.716;2023-11-18T11:42:50;13.80;;;9.90;;
24567;SDS011;12731;52.182;8.716;2023-11-18T11:45:23;12.70;;;9.95;;
24567;SDS011;12731;52.182;8.716;2023-11-18T11:47:54;14.27;;;9.95;;
24567;SDS011;12731;52.182;8.716;2023-11-18T11:50:45;14.45;;;10.30;;
24567;SDS011;12731;52.182;8.716;2023-11-18T11:53:21;14.15;;;10.77;;
24567;SDS011;12731;52.182;8.716;2023-11-18T11:55:50;14.32;;;10.40;;
24567;SDS011;12731;52.182;8.716;2023-11-18T11:58:34;13.35;;;9.63;;
24567;SDS011;12731;52.182;8.716;2023-11-18T12:01:16;13.40;;;10.45;;
24567;SDS011;12731;52.182;8.716;2023-11-18T12:03:51;17.33;;;9.50;;
24567;SDS011;12731;52.182;8.716;2023-11-18T12:06:24;13.13;;;10.63;;
24567;SDS011;12731;52.182;8.716;2023-11-18T12:08:51;13.15;;;9.48;;
24567;SDS011;12731;52.182;8.716;2023-11-18T12:11:21;13.73;;;10.00;;
24567;SDS011;12731;52.182;8.716;2023-11-18T12:14:01;13.30;;;9.52;;
24567;SDS011;12731;52.182;8.716;2023-11-18T12:19:40;13.60;;;10.25;;
24567;SDS011;12731;52.182;8.716;2023-11-18T12:35:57;15.48;;;10.23;;
24567;SDS011;12731;52.182;8.716;2023-11-18T12:39:00;14.35;;;10.43;;
24567;SDS011;12731;52.182;8.716;2023-11-18T12:41:40;15.18;;;10.00;;
24567;SDS011;12731;52.182;8.716;2023-11-18T12:46:54;13.13;;;10.52;;
24567;SDS011;12731;52.182;8.716;2023-11-18T12:49:22;14.40;;;10.63;;
24567;SDS011;12731;52.182;8.716;2023-11-18T12:51:53;13.45;;;10.90;;
24567;SDS011;12731;52.182;8.716;2023-11-18T12:54:25;13.95;;;10.32;;
24567;SDS011;12731;52.182;8.716;2023-11-18T12:56:56;16.50;;;10.68;;
24567;SDS011;12731;52.182;8.716;2023-11-18T12:59:23;15.02;;;10.07;;
24567;SDS011;12731;52.182;8.716;2023-11-18T13:01:50;13.55;;;10.73;;
24567;SDS011;12731;52.182;8.716;2023-11-18T13:06:53;16.30;;;11.23;;
24567;SDS011;12731;52.182;8.716;2023-11-18T13:09:24;15.27;;;11.15;;
24567;SDS011;12731;52.182;8.716;2023-11-18T13:11:59;14.57;;;10.50;;
24567;SDS011;12731;52.182;8.716;2023-11-18T13:14:33;17.35;;;11.13;;
24567;SDS011;12731;52.182;8.716;2023-11-18T13:17:04;13.70;;;10.43;;
24567;SDS011;12731;52.182;8.716;2023-11-18T13:19:35;15.25;;;10.60;;
24567;SDS011;12731;52.182;8.716;2023-11-18T13:22:02;17.25;;;10.50;;
24567;SDS011;12731;52.182;8.716;2023-11-18T13:24:38;16.35;;;10.38;;
24567;SDS011;12731;52.182;8.716;2023-11-18T13:27:18;13.45;;;9.88;;
24567;SDS011;12731;52.182;8.716;2023-11-18T13:29:46;14.63;;;10.70;;
24567;SDS011;12731;52.182;8.716;2023-11-18T13:32:17;12.23;;;9.65;;
24567;SDS011;12731;52.182;8.716;2023-11-18T13:34:49;14.77;;;9.85;;
24567;SDS011;12731;52.182;8.716;2023-11-18T13:37:17;14.02;;;10.10;;
24567;SDS011;12731;52.182;8.716;2023-11-18T13:39:44;15.65;;;9.63;;
24567;SDS011;12731;52.182;8.716;2023-11-18T13:44:58;13.10;;;9.20;;
24567;SDS011;12731;52.182;8.716;2023-11-18T13:47:26;11.80;;;9.10;;
24567;SDS011;12731;52.182;8.716;2023-11-18T13:49:53;13.02;;;8.63;;
24567;SDS011;12731;52.182;8.716;2023-11-18T13:52:20;13.18;;;9.43;;
24567;SDS011;12731;52.182;8.716;2023-11-18T13:54:47;12.50;;;8.70;;
24567;SDS011;12731;52.182;8.716;2023-11-18T13:57:14;12.85;;;8.88;;
24567;SDS011;12731;52.182;8.716;2023-11-18T13:59:40;12.02;;;8.48;;
24567;SDS011;12731;52.182;8.716;2023-11-18T14:02:10;12.32;;;8.13;;
24567;SDS011;12731;52.182;8.716;2023-11-18T14:04:38;12.90;;;8.75;;
24567;SDS011;12731;52.182;8.716;2023-11-18T14:07:05;11.85;;;8.63;;
24567;SDS011;12731;52.182;8.716;2023-11-18T14:09:32;12.13;;;9.02;;
24567;SDS011;12731;52.182;8.716;2023-11-18T14:12:08;14.82;;;9.13;;
24567;SDS011;12731;52.182;8.716;2023-11-18T14:14:34;11.93;;;8.68;;
24567;SDS011;12731;52.182;8.716;2023-11-18T14:17:01;11.60;;;8.40;;
24567;SDS011;12731;52.182;8.716;2023-11-18T14:19:28;12.25;;;8.93;;
24567;SDS011;12731;52.182;8.716;2023-11-18T14:21:55;13.93;;;8.43;;
24567;SDS011;12731;52.182;8.716;2023-11-18T14:24:22;11.90;;;8.20;;
24567;SDS011;12731;52.182;8.716;2023-11-18T14:26:54;11.23;;;7.90;;
24567;SDS011;12731;52.182;8.716;2023-11-18T14:29:23;10.85;;;7.20;;
24567;SDS011;12731;52.182;8.716;2023-11-18T14:31:54;11.48;;;7.82;;
24567;SDS011;12731;52.182;8.716;2023-11-18T14:34:20;9.75;;;6.85;;
24567;SDS011;12731;52.182;8.716;2023-11-18T14:36:47;10.98;;;7.90;;
24567;SDS011;12731;52.182;8.716;2023-11-18T14:39:14;10.40;;;7.45;;
24567;SDS011;12731;52.182;8.716;2023-11-18T14:41:45;11.20;;;7.28;;
24567;SDS011;12731;52.182;8.716;2023-11-18T14:44:11;14.77;;;10.25;;
24567;SDS011;12731;52.182;8.716;2023-11-18T14:46:38;12.20;;;8.73;;
24567;SDS011;12731;52.182;8.716;2023-11-18T14:49:07;10.82;;;7.63;;
24567;SDS011;12731;52.182;8.716;2023-11-18T14:51:34;9.88;;;7.78;;
24567;SDS011;12731;52.182;8.716;2023-11-18T14:54:02;11.38;;;8.07;;
24567;SDS011;12731;52.182;8.716;2023-11-18T14:56:28;11.95;;;7.85;;
24567;SDS011;12731;52.182;8.716;2023-11-18T14:58:55;10.45;;;7.00;;
24567;SDS011;12731;52.182;8.716;2023-11-18T15:01:22;10.75;;;8.02;;
24567;SDS011;12731;52.182;8.716;2023-11-18T15:03:48;11.25;;;8.23;;
24567;SDS011;12731;52.182;8.716;2023-11-18T15:06:23;12.30;;;8.60;;
24567;SDS011;12731;52.182;8.716;2023-11-18T15:08:50;12.70;;;8.40;;
24567;SDS011;12731;52.182;8.716;2023-11-18T15:11:23;11.20;;;8.25;;
24567;SDS011;12731;52.182;8.716;2023-11-18T15:13:50;12.20;;;8.23;;
24567;SDS011;12731;52.182;8.716;2023-11-18T15:16:19;12.60;;;8.35;;